Time;durP1;ratioP1;P1;durP2;ratioP2;P2;SDS_P1;SDS_P2;PMS_P1;PMS_P2;Temp;Humidity;BMP_temperature;BMP_pressure;BME280_temperature;BME280_humidity;BME280_pressure;Samples;Min_cycle;Max_cycle;Signal;HPM_P1;HPM_P2
2022/01/17 00:02:15;;;;;;;355.50;118.82;;;0.60;99.70;;;;;;5038016;28;20017;-93
2022/01/17 00:04:47;;;;;;;337.85;111.63;;;0.60;99.60;;;;;;5037077;28;20021;-93
2022/01/17 00:07:16;;;;;;;287.63;100.15;;;0.60;99.70;;;;;;5036092;28;20119;-92
2022/01/17 00:09:42;;;;;;;312.50;103.30;;;0.60;99.60;;;;;;5037638;28;20071;-93
2022/01/17 00:12:16;;;;;;;295.75;96.57;;;0.60;99.80;;;;;;5037830;28;20029;-93
2022/01/17 00:14:45;;;;;;;289.50;96.65;;;0.60;99.90;;;;;;5039443;28;20036;-93
2022/01/17 00:19:45;;;;;;;280.90;94.03;;;0.60;99.30;;;;;;5039075;28;20147;-93
2022/01/17 00:22:13;;;;;;;264.13;89.82;;;0.60;99.90;;;;;;5021915;28;20067;-93
2022/01/17 00:24:53;;;;;;;254.80;88.30;;;0.60;99.90;;;;;;5022151;28;20448;-93
2022/01/17 00:30:53;;;;;;;247.55;85.57;;;0.90;99.90;;;;;;4983490;28;20035;-93
2022/01/17 00:33:22;;;;;;;230.30;81.20;;;0.90;99.80;;;;;;5021390;28;20037;-93
2022/01/17 00:35:48;;;;;;;232.10;77.70;;;0.80;99.80;;;;;;5021375;28;20063;-93
2022/01/17 00:38:18;;;;;;;217.60;74.78;;;0.90;99.90;;;;;;5004951;28;20041;-92
2022/01/17 00:40:44;;;;;;;245.38;79.50;;;1.00;99.90;;;;;;5021191;28;20051;-94
2022/01/17 00:43:13;;;;;;;236.45;82.47;;;1.00;99.90;;;;;;5021994;28;20474;-94
2022/01/17 00:45:42;;;;;;;250.23;86.70;;;1.00;99.90;;;;;;5020911;28;20030;-93
2022/01/17 00:48:09;;;;;;;240.50;84.78;;;1.10;99.90;;;;;;5021357;28;20460;-93
2022/01/17 00:50:38;;;;;;;217.05;77.40;;;1.00;99.70;;;;;;5021017;28;20022;-94
2022/01/17 00:53:09;;;;;;;215.48;78.88;;;0.80;99.90;;;;;;5020807;28;20049;-94
2022/01/17 00:55:36;;;;;;;196.48;71.68;;;0.80;99.90;;;;;;5021183;28;20026;-94
2022/01/17 00:58:03;;;;;;;220.52;80.30;;;0.80;99.90;;;;;;5020629;28;20034;-93
2022/01/17 01:00:38;;;;;;;196.90;71.13;;;0.90;99.90;;;;;;5020786;28;20053;-93
2022/01/17 01:03:05;;;;;;;212.75;77.20;;;1.00;99.90;;;;;;5020409;28;20025;-93
2022/01/17 01:05:31;;;;;;;184.93;69.47;;;1.00;99.90;;;;;;5021060;28;20026;-94
2022/01/17 01:07:57;;;;;;;215.15;79.22;;;1.00;99.90;;;;;;5020463;28;20033;-93
2022/01/17 01:10:28;;;;;;;217.88;81.57;;;1.00;99.90;;;;;;5020413;28;20076;-94
2022/01/17 01:12:56;;;;;;;223.75;83.93;;;1.00;99.90;;;;;;5019821;28;20017;-93
2022/01/17 01:15:46;;;;;;;233.60;86.82;;;1.00;99.90;;;;;;5020624;28;20057;-93
2022/01/17 01:21:25;;;;;;;283.77;97.80;;;1.00;99.90;;;;;;5038308;28;20029;-93
2022/01/17 01:29:20;;;;;;;233.02;86.60;;;0.90;99.90;;;;;;5023166;28;20068;-93
2022/01/17 01:31:57;;;;;;;230.10;84.05;;;0.90;99.90;;;;;;5020109;28;20120;-94
2022/01/17 01:34:33;;;;;;;196.45;75.32;;;0.90;99.90;;;;;;5020128;28;20037;-93
2022/01/17 01:37:02;;;;;;;195.48;71.97;;;0.90;99.90;;;;;;5020413;28;20084;-93
2022/01/17 01:39:33;;;;;;;197.85;71.57;;;0.90;99.90;;;;;;5020363;28;20120;-93
2022/01/17 01:42:03;;;;;;;227.82;81.15;;;0.90;99.90;;;;;;5020290;28;20028;-94
2022/01/17 01:44:38;;;;;;;192.70;71.57;;;1.00;99.90;;;;;;5017634;28;20087;-93
2022/01/17 01:50:44;;;;;;;287.30;102.45;;;0.90;99.90;;;;;;4982900;28;20431;-93
2022/01/17 01:53:22;;;;;;;281.35;98.15;;;0.80;99.90;;;;;;5019426;28;20475;-94
2022/01/17 01:55:50;;;;;;;279.05;99.63;;;0.70;99.90;;;;;;5019067;28;20034;-93
2022/01/17 01:58:25;;;;;;;252.60;88.90;;;0.80;99.90;;;;;;5019501;28;20056;-93
2022/01/17 02:01:14;;;;;;;226.13;85.30;;;0.70;99.90;;;;;;5018812;28;20084;-93
2022/01/17 02:03:48;;;;;;;235.90;89.78;;;0.60;99.90;;;;;;5019616;28;20099;-93
2022/01/17 02:12:25;;;;;;;264.40;92.82;;;0.70;99.90;;;;;;5042156;28;20032;-93
2022/01/17 02:15:07;;;;;;;242.27;84.55;;;0.70;99.90;;;;;;5018943;28;20080;-94
2022/01/17 02:17:40;;;;;;;260.65;93.95;;;0.70;99.90;;;;;;5035187;28;20062;-94
2022/01/17 02:20:41;;;;;;;220.23;82.60;;;0.70;99.90;;;;;;5035727;28;20032;-93
2022/01/17 02:23:08;;;;;;;219.95;79.30;;;0.70;99.90;;;;;;5035284;28;20022;-93
2022/01/17 02:25:45;;;;;;;218.90;80.15;;;0.60;99.90;;;;;;5018696;28;20042;-93
2022/01/17 02:28:20;;;;;;;210.25;78.10;;;0.50;99.90;;;;;;5036055;28;20033;-93
2022/01/17 02:30:49;;;;;;;253.98;91.15;;;0.40;99.90;;;;;;5036208;28;20037;-93
2022/01/17 02:33:15;;;;;;;276.63;95.85;;;0.40;99.90;;;;;;5035676;28;20036;-94
2022/01/17 02:36:08;;;;;;;236.27;87.03;;;0.40;99.90;;;;;;5033969;28;20033;-94
2022/01/17 02:38:44;;;;;;;218.88;78.72;;;0.30;99.90;;;;;;5034559;28;20434;-94
2022/01/17 02:41:11;;;;;;;261.20;93.03;;;0.30;99.90;;;;;;5035221;28;20113;-93
2022/01/17 02:43:50;;;;;;;277.42;100.35;;;0.30;99.90;;;;;;5035132;28;20546;-93
2022/01/17 02:46:25;;;;;;;256.70;93.95;;;0.30;99.90;;;;;;5035990;28;20104;-93
2022/01/17 02:48:55;;;;;;;233.75;85.82;;;0.30;99.90;;;;;;5036015;28;20037;-94
2022/01/17 02:51:48;;;;;;;283.42;105.57;;;0.30;99.90;;;;;;5035078;28;20483;-93
2022/01/17 02:54:32;;;;;;;278.83;102.05;;;0.10;99.90;;;;;;5035052;28;20033;-94
2022/01/17 02:57:03;;;;;;;260.92;94.28;;;-0.10;99.90;;;;;;5036384;28;20117;-94
2022/01/17 02:59:31;;;;;;;279.27;102.85;;;-0.20;99.90;;;;;;5034809;28;20040;-94
2022/01/17 03:02:06;;;;;;;257.90;92.53;;;-0.20;99.90;;;;;;5035069;28;20021;-93
2022/01/17 03:04:41;;;;;;;233.80;90.40;;;-0.30;99.90;;;;;;5034252;28;20041;-93
2022/01/17 03:07:07;;;;;;;247.07;90.80;;;-0.20;99.90;;;;;;5034797;28;20279;-93
2022/01/17 03:09:45;;;;;;;227.32;84.35;;;-0.20;99.90;;;;;;5035198;28;20037;-93
2022/01/17 03:12:15;;;;;;;230.55;84.85;;;-0.10;99.90;;;;;;5035704;28;20024;-94
2022/01/17 03:14:49;;;;;;;217.32;80.82;;;-0.20;99.90;;;;;;5034696;28;20025;-93
2022/01/17 03:17:17;;;;;;;263.20;94.60;;;-0.20;99.90;;;;;;5035075;28;20377;-93
2022/01/17 03:19:49;;;;;;;250.15;79.78;;;-0.30;99.90;;;;;;5034851;28;20121;-93
2022/01/17 03:22:20;;;;;;;213.40;79.38;;;-0.50;99.90;;;;;;5035192;28;20431;-93
2022/01/17 03:24:46;;;;;;;210.07;77.05;;;-0.60;99.90;;;;;;5035354;28;20036;-95
2022/01/17 03:27:12;;;;;;;205.00;76.90;;;-0.60;99.90;;;;;;5034018;28;20108;-94
2022/01/17 03:29:44;;;;;;;187.93;69.07;;;-0.50;99.90;;;;;;5035179;28;20021;-93
2022/01/17 03:32:13;;;;;;;168.25;60.80;;;-0.50;99.90;;;;;;5034529;28;20112;-94
2022/01/17 03:34:42;;;;;;;210.15;76.85;;;-0.40;99.90;;;;;;5033391;28;20484;-93
2022/01/17 03:37:11;;;;;;;184.73;68.07;;;-0.40;99.90;;;;;;5034586;28;20034;-93
2022/01/17 03:39:44;;;;;;;214.60;76.53;;;-0.40;99.90;;;;;;5034815;28;20053;-93
2022/01/17 03:42:11;;;;;;;241.30;86.65;;;-0.40;99.90;;;;;;5034562;28;20025;-94
2022/01/17 03:44:39;;;;;;;197.55;75.32;;;-0.40;99.90;;;;;;5035152;28;20040;-93
2022/01/17 03:47:09;;;;;;;184.43;70.00;;;-0.40;99.90;;;;;;5034837;28;20048;-93
2022/01/17 03:49:35;;;;;;;230.20;84.47;;;-0.40;99.90;;;;;;5035320;28;20539;-93
2022/01/17 03:52:01;;;;;;;249.50;89.97;;;-0.40;99.90;;;;;;5038497;28;20065;-93
2022/01/17 03:54:31;;;;;;;225.55;84.35;;;-0.40;99.90;;;;;;5038473;28;20033;-93
2022/01/17 03:56:58;;;;;;;198.80;74.45;;;-0.50;99.90;;;;;;5038284;28;20464;-93
2022/01/17 03:59:27;;;;;;;214.20;79.28;;;-0.40;99.90;;;;;;5036164;28;20132;-94
2022/01/17 04:02:02;;;;;;;198.60;74.97;;;-0.20;99.90;;;;;;5038543;28;20419;-94
2022/01/17 04:04:28;;;;;;;199.90;77.20;;;-0.10;99.90;;;;;;5038611;28;20396;-94
2022/01/17 04:06:54;;;;;;;188.50;72.60;;;0.00;99.90;;;;;;5038764;28;20451;-93
2022/01/17 04:09:20;;;;;;;218.23;84.13;;;0.20;99.90;;;;;;5029758;28;20037;-93
2022/01/17 04:11:49;;;;;;;193.00;73.10;;;0.20;99.90;;;;;;5038114;28;20041;-94
2022/01/17 04:14:18;;;;;;;201.68;78.05;;;0.20;99.90;;;;;;5038584;28;20029;-93
2022/01/17 04:16:44;;;;;;;209.93;76.72;;;0.30;99.90;;;;;;5036174;28;20072;-93
2022/01/17 04:19:11;;;;;;;196.23;78.25;;;0.30;99.90;;;;;;5036196;28;20033;-94
2022/01/17 04:21:38;;;;;;;211.05;79.40;;;0.40;99.90;;;;;;5036401;28;20542;-93
2022/01/17 04:24:09;;;;;;;234.07;84.63;;;0.40;99.90;;;;;;5037296;28;20025;-93
2022/01/17 07:30:40;;;;;;;395.58;142.55;;;-1.10;99.90;;;;;;5033768;27;20394;-95
2022/01/17 07:33:07;;;;;;;359.92;136.55;;;-1.00;99.90;;;;;;5032543;28;20062;-94
2022/01/17 07:35:35;;;;;;;375.23;141.93;;;-0.90;99.90;;;;;;5034795;28;20108;-96
2022/01/17 07:38:01;;;;;;;403.55;148.23;;;-0.70;99.90;;;;;;5032436;28;20095;-95
2022/01/17 07:40:29;;;;;;;406.65;157.55;;;-0.50;99.90;;;;;;5033861;28;20072;-95
2022/01/17 07:42:55;;;;;;;487.10;196.80;;;-0.30;99.90;;;;;;5033790;28;20030;-93
2022/01/17 07:45:21;;;;;;;500.58;200.85;;;-0.20;99.90;;;;;;5034007;28;20121;-96
2022/01/17 07:50:20;;;;;;;451.73;173.18;;;0.10;99.90;;;;;;5033208;28;20038;-96
2022/01/17 11:05:17;;;;;;;78.22;35.88;;;7.60;93.40;;;;;;5114495;27;20381;-95
2022/01/17 11:07:49;;;;;;;79.10;35.72;;;7.90;93.00;;;;;;5113028;28;20085;-95
2022/01/17 11:10:20;;;;;;;78.85;36.80;;;8.10;92.30;;;;;;5097937;28;20033;-94
2022/01/17 11:12:48;;;;;;;77.38;33.80;;;8.40;91.80;;;;;;5113418;28;20073;-94
2022/01/17 11:15:40;;;;;;;77.07;33.33;;;8.60;92.10;;;;;;5118876;28;20028;-96
2022/01/17 11:18:16;;;;;;;102.18;43.42;;;8.80;91.80;;;;;;5112941;28;20028;-96
2022/01/17 11:20:43;;;;;;;80.88;35.42;;;9.10;91.90;;;;;;5112948;28;20028;-95
2022/01/17 11:39:07;;;;;;;168.65;58.40;;;10.30;86.90;;;;;;6000716;22;20041;-96
2022/01/17 11:41:35;;;;;;;112.65;43.20;;;10.50;83.90;;;;;;5065252;28;20059;-96
2022/01/17 11:44:05;;;;;;;69.63;29.77;;;10.80;83.70;;;;;;5066947;28;20033;-96
2022/01/17 11:46:33;;;;;;;56.17;26.27;;;11.00;82.00;;;;;;5066904;28;20037;-94
2022/01/17 11:49:24;;;;;;;54.65;24.20;;;11.10;80.70;;;;;;5066122;28;20025;-96
2022/01/17 11:51:52;;;;;;;56.15;26.63;;;11.10;83.00;;;;;;5068136;28;20025;-96
2022/01/17 11:54:27;;;;;;;66.40;31.00;;;11.40;80.50;;;;;;5068122;28;20492;-96
2022/01/17 11:57:15;;;;;;;;;;;11.60;76.20;;;;;;5067872;28;20037;-96
2022/01/17 11:59:46;;;;;;;55.20;27.48;;;11.60;77.30;;;;;;5032498;28;19909;-96
2022/01/17 12:02:39;;;;;;;61.25;29.55;;;11.80;77.30;;;;;;5047291;28;20143;-96
2022/01/17 12:05:08;;;;;;;58.35;26.70;;;12.10;77.50;;;;;;5048841;28;20454;-96
2022/01/17 12:07:52;;;;;;;46.33;24.73;;;12.40;77.00;;;;;;5041779;28;20125;-96
2022/01/17 12:10:25;;;;;;;52.85;25.55;;;12.70;73.30;;;;;;5051712;28;20373;-96
2022/01/17 12:13:44;;;;;;;52.03;26.77;;;12.90;74.30;;;;;;5064066;28;20124;-96
2022/01/17 12:16:31;;;;;;;62.97;30.13;;;12.90;72.80;;;;;;5037073;28;20029;-96
2022/01/17 12:19:09;;;;;;;58.10;28.20;;;12.90;73.20;;;;;;5026985;28;20040;-96
2022/01/17 12:22:16;;;;;;;54.20;26.83;;;13.00;71.90;;;;;;5037764;28;20009;-96
2022/01/17 12:24:47;;;;;;;33.72;18.67;;;13.10;70.40;;;;;;5009394;28;20041;-96
2022/01/17 12:27:16;;;;;;;33.97;17.92;;;13.20;69.20;;;;;;5052355;28;20037;-96
2022/01/17 12:30:08;;;;;;;32.15;15.70;;;13.40;70.60;;;;;;5034550;28;20034;-96
2022/01/17 13:18:35;;;;;;;51.22;25.10;;;14.80;63.80;;;;;;4939001;28;20051;-94
2022/01/17 13:21:09;;;;;;;47.10;23.83;;;14.80;63.20;;;;;;4955466;28;20127;-92
2022/01/17 13:27:18;;;;;;;49.60;23.75;;;15.00;63.50;;;;;;4941093;29;20114;-93
2022/01/17 13:30:17;;;;;;;;;;;;;;;;;;;;;
2022/01/17 13:33:11;;;;;;;58.58;29.00;;;15.30;62.80;;;;;;4942825;29;20115;-92
2022/01/17 13:36:03;;;;;;;53.33;29.92;;;15.30;62.10;;;;;;4940806;28;20086;-94
2022/01/17 13:38:35;;;;;;;50.42;27.10;;;15.20;63.80;;;;;;4939273;29;20036;-92
2022/01/17 13:41:33;;;;;;;53.88;26.83;;;15.40;65.00;;;;;;4939399;29;20028;-91
2022/01/17 13:48:11;;;;;;;56.10;27.83;;;15.40;62.50;;;;;;4938901;29;20050;-93
2022/01/17 13:51:11;;;;;;;44.00;22.60;;;15.20;64.10;;;;;;4954573;29;20036;-92
2022/01/17 13:53:48;;;;;;;49.92;24.42;;;15.00;62.20;;;;;;4938486;28;20028;-91
2022/01/17 13:57:18;;;;;;;43.75;22.83;;;14.40;62.90;;;;;;4954485;29;20032;-92
2022/01/17 14:00:17;;;;;;;42.03;20.15;;;14.00;63.80;;;;;;4918302;29;20028;-92
2022/01/17 14:02:45;;;;;;;45.00;22.40;;;13.50;64.70;;;;;;4912884;29;20039;-92
2022/01/17 14:05:58;;;;;;;;;;;;;;;;;;;;;
2022/01/17 14:08:41;;;;;;;62.10;31.10;;;13.00;66.90;;;;;;4932711;29;20110;-92
2022/01/17 14:11:41;;;;;;;;;;;;;;;;;;;;;
2022/01/17 14:14:45;;;;;;;;;;;;;;;;;;;;;
2022/01/17 14:17:22;;;;;;;55.22;26.73;;;12.50;68.10;;;;;;4953526;29;20111;-92
2022/01/17 14:20:27;;;;;;;61.28;29.38;;;12.40;69.10;;;;;;4940531;29;20423;-92
2022/01/17 14:23:13;;;;;;;61.95;29.00;;;12.20;68.50;;;;;;4950835;29;20040;-93
2022/01/17 14:25:42;;;;;;;;;;;12.10;68.30;;;;;;4957336;29;20494;-93
2022/01/17 14:28:13;;;;;;;83.03;40.13;;;12.00;69.10;;;;;;4954493;28;19907;-93
2022/01/17 14:30:48;;;;;;;107.90;48.85;;;11.90;69.20;;;;;;4956211;29;20477;-93
2022/01/17 14:33:51;;;;;;;130.18;55.22;;;11.80;69.60;;;;;;4956769;29;20142;-92
2022/01/17 14:36:29;;;;;;;136.23;54.58;;;11.70;71.40;;;;;;4936520;28;20463;-93
2022/01/17 14:39:16;;;;;;;129.88;57.35;;;11.70;70.90;;;;;;4954581;28;20036;-92
2022/01/17 14:41:58;;;;;;;130.77;52.72;;;11.60;71.20;;;;;;4958263;29;20043;-93
2022/01/17 14:45:15;;;;;;;125.82;51.55;;;11.60;71.90;;;;;;4955536;29;20062;-93
2022/01/17 14:48:26;;;;;;;102.57;45.63;;;11.50;71.30;;;;;;4955483;29;20023;-92
2022/01/17 14:51:32;;;;;;;104.50;44.28;;;11.40;73.70;;;;;;4938815;29;20038;-93
2022/01/17 14:54:14;;;;;;;107.68;47.60;;;11.30;74.70;;;;;;4938374;29;20040;-92
2022/01/17 15:02:32;;;;;;;114.38;49.40;;;11.20;76.00;;;;;;4938885;29;20047;-92
2022/01/17 15:05:16;;;;;;;122.15;51.30;;;11.20;75.90;;;;;;4953483;29;20032;-93
2022/01/17 15:07:59;;;;;;;105.75;48.50;;;11.20;76.20;;;;;;4936872;29;20502;-93
2022/01/17 15:10:30;;;;;;;104.40;46.30;;;11.20;76.80;;;;;;4936366;29;20040;-93
2022/01/17 15:13:02;;;;;;;105.60;46.45;;;11.10;76.40;;;;;;4937286;29;20032;-93
2022/01/17 15:15:40;;;;;;;108.85;45.10;;;11.00;76.60;;;;;;4937359;28;20032;-93
2022/01/17 15:18:13;;;;;;;110.80;45.80;;;10.90;75.00;;;;;;4937428;29;20058;-93
2022/01/17 15:24:01;;;;;;;122.28;43.88;;;10.80;78.00;;;;;;4937826;29;20102;-92
2022/01/17 15:26:33;;;;;;;131.32;50.33;;;10.80;77.20;;;;;;4936341;29;20031;-93
2022/01/17 15:29:12;;;;;;;116.43;46.97;;;10.80;78.30;;;;;;4937004;29;20059;-93
2022/01/17 15:31:48;;;;;;;100.97;44.10;;;10.60;76.80;;;;;;4936784;29;20020;-93
2022/01/17 15:34:15;;;;;;;102.45;43.70;;;10.60;77.40;;;;;;4938135;29;20024;-93
2022/01/17 15:37:00;;;;;;;106.07;41.10;;;10.60;77.10;;;;;;4936675;29;20035;-93
2022/01/17 15:39:50;;;;;;;;;;;10.60;76.30;;;;;;4937399;29;20024;-92
2022/01/17 15:42:33;;;;;;;111.90;44.58;;;10.60;78.50;;;;;;4953153;29;19907;-93
2022/01/17 15:45:03;;;;;;;113.90;44.22;;;10.60;77.80;;;;;;4938291;29;20118;-92
2022/01/17 15:47:48;;;;;;;;;;;;;;;;;;;;;
2022/01/17 15:50:16;;;;;;;109.50;46.83;;;10.50;78.80;;;;;;4941367;29;20089;-93
2022/01/17 15:52:48;;;;;;;157.68;60.47;;;10.60;79.40;;;;;;4942606;29;20463;-93
2022/01/17 15:55:37;;;;;;;273.10;108.93;;;10.50;79.20;;;;;;4944023;29;20546;-93
2022/01/17 15:58:06;;;;;;;377.95;154.60;;;10.40;81.00;;;;;;4941302;29;20028;-92
2022/01/17 16:00:37;;;;;;;400.98;160.27;;;10.40;80.70;;;;;;4941773;29;20027;-92
2022/01/17 16:03:07;;;;;;;379.67;145.98;;;10.40;80.40;;;;;;4940160;29;20032;-93
2022/01/17 16:05:33;;;;;;;384.90;147.32;;;10.40;82.30;;;;;;4956950;28;20051;-90
2022/01/17 16:07:59;;;;;;;342.45;133.70;;;10.30;81.10;;;;;;4939186;29;20039;-92
2022/01/17 16:10:36;;;;;;;421.45;161.55;;;10.30;81.60;;;;;;4940979;29;20115;-92
2022/01/17 16:13:03;;;;;;;409.95;158.70;;;10.10;81.50;;;;;;4941098;29;20055;-93
2022/01/17 16:18:57;;;;;;;431.02;165.25;;;9.90;83.10;;;;;;4941068;29;20517;-92
2022/01/17 16:21:56;;;;;;;430.27;156.70;;;9.80;83.60;;;;;;4940699;28;20036;-93
2022/01/17 16:24:43;;;;;;;434.13;161.88;;;9.60;84.00;;;;;;4941010;29;20032;-93
2022/01/17 16:27:12;;;;;;;447.58;164.75;;;9.60;84.70;;;;;;4940443;29;20100;-93
2022/01/17 16:29:55;;;;;;;437.55;161.35;;;9.50;84.50;;;;;;4939911;29;20023;-91
2022/01/17 16:32:39;;;;;;;410.92;150.50;;;9.50;84.70;;;;;;4939771;29;20107;-94
2022/01/17 16:35:26;;;;;;;425.55;160.48;;;9.50;84.80;;;;;;4956241;29;20039;-93
2022/01/17 16:38:17;;;;;;;431.25;165.32;;;9.30;85.20;;;;;;4939713;28;20039;-93
2022/01/17 16:40:51;;;;;;;423.05;167.35;;;9.20;85.70;;;;;;4955694;29;20035;-93
2022/01/17 16:43:24;;;;;;;407.25;167.13;;;9.10;85.90;;;;;;4939927;29;20028;-93
2022/01/17 16:49:21;;;;;;;391.38;152.43;;;8.90;86.30;;;;;;4940848;29;20054;-93
2022/01/17 16:51:53;;;;;;;375.35;139.23;;;8.80;87.10;;;;;;4938916;29;20048;-93
2022/01/17 16:54:19;;;;;;;428.48;160.90;;;8.70;87.70;;;;;;4941358;29;20028;-92
2022/01/17 16:56:50;;;;;;;453.95;182.73;;;8.50;87.60;;;;;;4940024;29;20031;-92
2022/01/17 16:59:41;;;;;;;448.45;176.13;;;8.40;88.50;;;;;;4939429;29;20051;-92
2022/01/17 17:02:44;;;;;;;460.65;175.20;;;8.20;90.10;;;;;;4941130;29;20024;-92
2022/01/17 17:05:22;;;;;;;466.13;187.73;;;8.20;89.60;;;;;;4942260;29;20024;-92
2022/01/17 17:08:06;;;;;;;457.90;185.43;;;8.20;89.70;;;;;;4944872;29;20026;-91
2022/01/17 17:10:32;;;;;;;434.92;171.60;;;8.10;90.60;;;;;;4941251;29;20032;-93
2022/01/17 17:13:01;;;;;;;401.25;156.63;;;8.00;90.60;;;;;;4942374;29;20020;-92
2022/01/17 17:15:37;;;;;;;393.58;148.60;;;7.90;90.70;;;;;;4941898;29;20027;-92
2022/01/17 17:18:06;;;;;;;411.98;165.82;;;7.90;90.90;;;;;;4940805;29;20440;-91
2022/01/17 17:20:47;;;;;;;;;;;;;;;;;;;;;
2022/01/17 17:23:19;;;;;;;372.73;147.98;;;7.90;91.00;;;;;;4943056;29;20119;-91
2022/01/17 17:26:14;;;;;;;360.85;141.63;;;7.90;91.00;;;;;;4943209;29;20483;-92
2022/01/17 17:28:48;;;;;;;381.40;145.90;;;7.90;91.10;;;;;;4939722;29;20102;-91
2022/01/17 17:31:23;;;;;;;403.42;158.18;;;7.90;91.10;;;;;;4959161;28;20059;-92
2022/01/17 17:33:52;;;;;;;415.50;161.63;;;7.90;91.50;;;;;;4941898;29;20058;-92
2022/01/17 17:36:30;;;;;;;414.77;161.02;;;8.00;91.10;;;;;;4942461;29;20395;-92
2022/01/17 17:39:05;;;;;;;400.38;159.90;;;8.00;91.20;;;;;;4943280;29;20102;-93
2022/01/17 17:41:46;;;;;;;;;;;;;;;;;;;;;
2022/01/17 17:44:20;;;;;;;360.65;141.32;;;7.90;91.50;;;;;;4940001;29;20042;-91
2022/01/17 17:47:05;;;;;;;419.52;166.20;;;7.90;91.30;;;;;;4938838;29;20032;-92
2022/01/17 17:49:39;;;;;;;385.40;150.37;;;7.90;91.50;;;;;;4938641;29;20574;-91
2022/01/17 17:52:18;;;;;;;379.95;148.93;;;7.90;91.60;;;;;;4938225;29;20274;-92
2022/01/17 17:55:14;;;;;;;374.38;152.10;;;8.00;91.70;;;;;;4938293;29;20028;-92
2022/01/17 18:06:58;;;;;;;441.52;178.77;;;8.00;91.90;;;;;;5054840;23;20055;-93
2022/01/17 18:13:02;;;;;;;476.15;198.73;;;7.80;91.90;;;;;;4957986;28;20030;-92
2022/01/17 18:15:43;;;;;;;453.95;188.32;;;7.80;91.90;;;;;;4957155;28;20035;-92
2022/01/17 18:18:17;;;;;;;416.98;166.98;;;7.80;91.90;;;;;;4956924;28;20027;-92
2022/01/17 18:20:54;;;;;;;411.95;161.02;;;7.60;92.30;;;;;;4957262;28;20027;-93
2022/01/17 18:24:08;;;;;;;379.58;144.52;;;7.60;92.60;;;;;;4956772;29;20446;-93
2022/01/17 18:26:37;;;;;;;394.90;148.27;;;7.60;92.80;;;;;;4956598;29;20059;-93
2022/01/17 18:29:16;;;;;;;;;;;;;;;;;;;;;
2022/01/17 18:31:51;;;;;;;460.88;181.95;;;7.50;92.90;;;;;;4957999;29;20034;-92
2022/01/17 18:34:31;;;;;;;460.30;181.70;;;7.50;92.60;;;;;;4957188;29;20031;-93
2022/01/17 18:37:15;;;;;;;441.38;170.73;;;7.40;92.90;;;;;;4956609;29;20027;-92
2022/01/17 18:39:49;;;;;;;409.20;152.13;;;7.40;93.20;;;;;;4956256;29;20482;-92
2022/01/17 18:42:32;;;;;;;399.83;153.70;;;7.40;93.20;;;;;;4957108;28;20046;-92
2022/01/17 18:45:07;;;;;;;424.65;167.77;;;7.40;93.40;;;;;;4956634;29;20499;-92
2022/01/17 18:47:52;;;;;;;411.15;163.15;;;7.30;93.30;;;;;;4957226;29;20035;-93
2022/01/17 18:50:21;;;;;;;383.92;148.40;;;7.30;93.60;;;;;;4956482;29;20031;-92
2022/01/17 18:52:53;;;;;;;367.90;138.18;;;7.20;93.60;;;;;;4972514;28;20050;-93
2022/01/17 18:55:25;;;;;;;361.70;138.70;;;7.20;93.70;;;;;;4957910;29;20035;-92
2022/01/17 18:58:27;;;;;;;396.15;155.80;;;7.20;93.80;;;;;;4958087;28;20042;-91
2022/01/17 19:00:54;;;;;;;376.48;147.13;;;7.20;93.90;;;;;;4901501;29;20480;-92
2022/01/17 19:03:59;;;;;;;346.48;134.85;;;7.20;93.60;;;;;;4946329;29;20039;-92
2022/01/17 19:06:33;;;;;;;373.70;146.32;;;7.30;93.90;;;;;;4933347;29;20028;-93
2022/01/17 19:09:07;;;;;;;424.27;167.93;;;7.30;93.60;;;;;;4955981;29;20075;-92
2022/01/17 19:11:33;;;;;;;391.48;152.43;;;7.30;93.90;;;;;;4956868;28;20034;-92
2022/01/17 19:14:09;;;;;;;420.17;175.85;;;7.30;93.80;;;;;;4957040;28;20023;-91
2022/01/17 19:16:35;;;;;;;428.63;175.82;;;7.20;93.90;;;;;;4956429;29;20043;-92
2022/01/17 19:19:18;;;;;;;424.55;172.38;;;7.20;93.80;;;;;;4955923;28;20119;-92
2022/01/17 19:21:53;;;;;;;482.42;205.63;;;7.20;94.30;;;;;;4956471;29;20036;-92
2022/01/17 19:24:29;;;;;;;489.48;205.50;;;7.10;94.50;;;;;;4956435;28;20035;-92
2022/01/17 19:27:05;;;;;;;472.80;196.20;;;7.10;94.40;;;;;;4960235;29;20055;-92
2022/01/17 19:29:39;;;;;;;474.30;197.27;;;7.10;94.50;;;;;;4960186;29;20031;-93
2022/01/17 19:32:25;;;;;;;495.08;200.90;;;6.80;94.80;;;;;;4959974;29;20035;-92
2022/01/17 19:34:57;;;;;;;488.10;205.50;;;6.90;94.90;;;;;;4957756;29;20050;-92
2022/01/17 19:37:35;;;;;;;523.25;225.90;;;7.00;94.90;;;;;;4960272;29;20027;-92
2022/01/17 19:40:09;;;;;;;518.13;232.18;;;7.00;94.80;;;;;;4960077;29;20085;-92
2022/01/17 19:42:45;;;;;;;535.75;241.50;;;7.10;95.10;;;;;;4959123;29;20035;-93
2022/01/17 19:45:29;;;;;;;582.22;270.70;;;7.10;95.00;;;;;;4959493;29;20079;-92
2022/01/17 19:48:00;;;;;;;564.92;260.25;;;7.10;95.30;;;;;;4976056;28;20035;-92
2022/01/17 19:50:43;;;;;;;584.10;261.48;;;7.10;95.00;;;;;;4959783;28;20032;-93
2022/01/17 19:53:21;;;;;;;804.38;325.20;;;7.10;95.10;;;;;;4960192;29;20058;-92
2022/01/17 19:55:56;;;;;;;756.53;309.75;;;7.10;95.10;;;;;;4959998;29;20019;-92
2022/01/17 19:58:44;;;;;;;834.30;330.17;;;7.10;95.20;;;;;;4959654;29;20067;-92
2022/01/17 20:04:56;;;;;;;695.45;282.58;;;7.00;95.60;;;;;;4960590;29;20042;-91
2022/01/17 20:10:29;;;;;;;624.78;258.40;;;6.90;95.80;;;;;;4959951;28;20046;-91
2022/01/17 20:13:10;;;;;;;579.97;238.18;;;7.00;95.80;;;;;;4959244;29;20027;-91
2022/01/17 20:15:44;;;;;;;542.45;223.18;;;7.00;96.00;;;;;;4958999;29;20082;-92
2022/01/17 20:18:29;;;;;;;538.78;239.07;;;7.00;95.70;;;;;;4958903;29;20035;-91
2022/01/17 20:21:10;;;;;;;513.15;216.50;;;6.90;95.90;;;;;;4959474;28;20095;-92
2022/01/17 20:23:42;;;;;;;524.40;218.23;;;6.90;96.00;;;;;;4959140;29;20031;-92
2022/01/17 20:26:35;;;;;;;574.17;243.82;;;7.10;95.80;;;;;;4959198;29;20065;-92
2022/01/17 20:29:01;;;;;;;551.08;236.65;;;7.10;95.80;;;;;;4959102;29;20055;-91
2022/01/17 20:31:33;;;;;;;530.33;225.65;;;7.10;95.80;;;;;;4959151;29;20030;-91
2022/01/17 20:34:04;;;;;;;518.90;218.70;;;7.20;96.00;;;;;;4958968;29;20122;-91
2022/01/17 20:36:33;;;;;;;561.58;250.27;;;7.30;95.70;;;;;;4958385;28;20123;-92
2022/01/17 20:39:02;;;;;;;535.40;236.73;;;7.30;95.80;;;;;;4958896;28;20489;-91
2022/01/17 20:41:33;;;;;;;531.05;247.82;;;7.30;95.50;;;;;;4958949;29;20062;-92
2022/01/17 20:44:07;;;;;;;515.35;236.38;;;7.20;95.60;;;;;;4958869;29;20023;-92
2022/01/17 20:46:42;;;;;;;486.80;220.52;;;7.00;95.80;;;;;;4958634;29;20027;-92
2022/01/17 20:49:12;;;;;;;527.72;244.98;;;7.10;96.00;;;;;;4958264;29;20028;-91
2022/01/17 20:52:11;;;;;;;495.17;223.27;;;7.10;95.70;;;;;;4958495;29;20087;-91
2022/01/17 20:54:47;;;;;;;494.85;221.82;;;7.00;96.40;;;;;;4956820;29;20505;-91
2022/01/17 20:57:18;;;;;;;474.63;205.30;;;7.00;96.30;;;;;;4958374;29;20035;-92
2022/01/17 20:59:45;;;;;;;476.48;213.35;;;7.10;96.10;;;;;;4958632;28;20031;-92
2022/01/17 21:02:22;;;;;;;478.52;218.18;;;7.10;96.10;;;;;;4960596;29;20537;-92
2022/01/17 21:04:57;;;;;;;502.48;231.43;;;7.00;96.30;;;;;;4959603;29;20023;-92
2022/01/17 21:07:26;;;;;;;;;;;6.90;96.30;;;;;;4960004;29;20027;-92
2022/01/17 21:09:52;;;;;;;549.25;247.93;;;6.80;96.60;;;;;;4959692;28;19911;-91
2022/01/17 21:12:27;;;;;;;94.00;39.50;;;6.80;96.50;;;;;;4958937;29;20034;-92
2022/01/17 21:15:03;;;;;;;77.32;28.75;;;6.80;91.70;;;;;;4959570;29;20482;-92
2022/01/17 21:17:33;;;;;;;38.80;15.88;;;7.20;91.70;;;;;;4960188;29;20452;-92
2022/01/17 21:19:59;;;;;;;9.05;3.92;;;7.50;89.90;;;;;;4958473;29;20565;-92
2022/01/17 21:22:28;;;;;;;9.95;4.18;;;7.80;87.80;;;;;;4960098;28;20047;-92
2022/01/17 21:25:14;;;;;;;13.77;4.80;;;8.00;87.50;;;;;;4959328;29;20032;-92
2022/01/17 21:27:39;;;;;;;;;;;8.20;87.20;;;;;;4958484;29;20039;-92
2022/01/17 21:30:12;;;;;;;8.70;4.30;;;8.20;86.00;;;;;;4957628;28;19912;-92
2022/01/17 21:32:46;;;;;;;15.07;5.78;;;8.20;87.40;;;;;;4957962;29;20035;-92
2022/01/17 21:35:21;;;;;;;13.63;4.90;;;8.20;86.40;;;;;;4957725;29;20118;-91
2022/01/17 21:41:19;;;;;;;20.27;6.55;;;8.20;86.10;;;;;;4958502;28;20082;-92
2022/01/17 21:43:58;;;;;;;10.90;4.97;;;8.20;86.10;;;;;;4951665;29;20047;-92
2022/01/17 21:46:25;;;;;;;15.15;5.25;;;8.10;86.70;;;;;;4957713;29;20091;-92
2022/01/17 21:48:56;;;;;;;14.40;5.40;;;8.10;86.70;;;;;;4955775;28;20031;-92
2022/01/17 21:51:36;;;;;;;23.27;8.23;;;8.20;87.10;;;;;;4956419;29;20039;-92